Terminal Aerodrome Forecast
Issued by NWS

Home | Current Version | Previous Version | Text Only | Print | Product List | Glossary On
Versions: 1 2 3 4 5 6 7 8 9 10 11 12 13 14 15 16 17 18 19 20
000
FTUS46 KPDT 311800 AAA
TAFPSC
TAF AMD
KPSC 311801Z 3118/0118 VRB06KT P6SM OVC025
      TEMPO 3118/3122 1SM BR OVC008
     FM312200 VRB06KT P6SM OVC018
     FM010400 20007KT P6SM OVC012
      TEMPO 0110/0114 1SM BR OVC008=

USA.gov is the U.S. government's official web portal to all federal, state and local government web resources and services.